Maersk Visby — 9V8827 — position and weather

sailwx.info

Track history (hours):
 
Tides and Currents Weather Stations Pressure Air Temp Water Temp Dewpoint Dewpoint Depression Visibility Wind Speed Wind Dir Waves Ship Positions

Maersk Visby

Last reported at 2014-Oct-18 23:08 UTC. Time now 2014-Oct-31 15:53 UTC.
Position N 36°44' W 075°41'.
Warning: this ship's position is 12 days out of date.

Length 180 m; draft 9.5 m.

Type: Ship (hazmat cat D). MMSI: 564979000.

Date/timePositionNaut miles runAvg speedWind from/ knotsBaromVisibWave heightAir tempDewpointWater temp
2014-Oct-18 23:08N 36°44' W 075°41'712.3
2014-Oct-18 22:33N 36°49' W 075°47'1212.1
2014-Oct-18 21:33N 36°56' W 075°59'1413.9
2014-Oct-18 20:32N 37°00' W 076°15'9 8.9
2014-Oct-18 19:33N 36°53' W 076°20'0 0.4
2014-Oct-18 18:23N 36°53' W 076°21'0 0.0
2014-Oct-18 14:23N 36°53' W 076°21'0 0.0
2014-Oct-18 10:26N 36°53' W 076°21'3 3.1
2014-Oct-18 09:33N 36°55' W 076°20'7 6.7
2014-Oct-18 08:32N 37°00' W 076°15'1212.3
2014-Oct-18 07:33N 36°58' W 075°60'1514.5
2014-Oct-18 06:33N 37°10' W 076°09'1615.8
2014-Oct-18 05:31N 37°26' W 076°05'7615.2
2014-Oct-18 00:33N 38°40' W 076°25'1615.8
2014-Oct-17 23:34N 38°56' W 076°23'1413.8
2014-Oct-17 22:33N 39°10' W 076°25'8 8.2
2014-Oct-17 21:33N 39°15' W 076°33'0 0.0
2014-Oct-17 20:32N 39°15' W 076°33'0 0.0
2014-Oct-17 19:32N 39°15' W 076°33'0 0.0
2014-Oct-17 18:22N 39°15' W 076°33'0 0.0
2014-Oct-17 17:19N 39°15' W 076°33'0 0.0
2014-Oct-17 16:31N 39°15' W 076°33'0 0.0
2014-Oct-17 15:32N 39°15' W 076°33'0 0.0
2014-Oct-17 14:25N 39°15' W 076°33'0 0.0
2014-Oct-17 13:31N 39°15' W 076°33'0 0.0
2014-Oct-17 12:28N 39°15' W 076°33'0 0.1
2014-Oct-17 11:32N 39°15' W 076°33'7 6.6
2014-Oct-17 10:32N 39°11' W 076°27'1212.3
2014-Oct-17 09:33N 38°59' W 076°23'1515.4
2014-Oct-17 08:33N 38°44' W 076°26'1515.1
2014-Oct-17 07:33N 38°29' W 076°23'2215.6
2014-Oct-17 06:08N 38°08' W 076°14'915.5
2014-Oct-17 05:33N 37°59' W 076°12'3214.4
2014-Oct-17 03:19N 37°27' W 076°04'1115.0
2014-Oct-17 02:33N 37°16' W 076°07'1414.2
2014-Oct-17 01:32N 37°02' W 076°04'1313.4
2014-Oct-17 00:33N 36°53' W 075°52'16313.2
2014-Oct-16 12:14N 39°08' W 073°55'1014.2
2014-Oct-16 11:30N 39°18' W 073°54'1314.1
2014-Oct-16 10:33N 39°31' W 073°53'1413.8
2014-Oct-16 09:33N 39°45' W 073°51'1413.5
2014-Oct-16 08:33N 39°58' W 073°50'2813.6
2014-Oct-16 06:28N 40°27' W 073°50'1111.8
2014-Oct-16 05:32N 40°33' W 074°02'7 7.6
2014-Oct-16 04:33N 40°39' W 074°08'3 0.8
2014-Oct-16 01:14N 40°41' W 074°09'0 0.0
2014-Oct-16 00:29N 40°41' W 074°09'0 0.0
2014-Oct-15 21:32N 40°41' W 074°09'0 0.0
2014-Oct-15 20:26N 40°41' W 074°09'0 0.0
2014-Oct-15 18:26N 40°41' W 074°09'0 0.0
2014-Oct-15 17:26N 40°41' W 074°09'0 0.0
2014-Oct-15 16:20N 40°41' W 074°09'0 0.0
2014-Oct-15 15:23N 40°41' W 074°09'0 0.0
2014-Oct-15 14:32N 40°41' W 074°09'0 0.0
2014-Oct-15 13:32N 40°41' W 074°09'0 0.0
2014-Oct-15 12:23N 40°41' W 074°09'1 0.9
2014-Oct-15 11:34N 40°41' W 074°09'5 5.2
2014-Oct-15 10:33N 40°38' W 074°03'1111.3
2014-Oct-15 09:33N 40°29' W 073°54'1111.5
2014-Oct-15 08:34N 40°23' W 073°41'1312.9
2014-Oct-15 07:34N 40°16' W 073°27'1312.9
2014-Oct-15 06:34N 40°08' W 073°13'1312.9
2014-Oct-15 05:33N 40°02' W 072°58'1312.9
2014-Oct-15 04:34N 39°56' W 072°43'1313.0
2014-Oct-15 03:34N 39°51' W 072°28'1313.1
2014-Oct-15 02:34N 39°45' W 072°13'1313.2
2014-Oct-15 01:33N 39°39' W 071°58'1312.6
2014-Oct-15 00:34N 39°28' W 071°50'1212.3
2014-Oct-14 23:34N 39°18' W 071°41'1212.1
2014-Oct-14 22:33N 39°08' W 071°32'1212.0
2014-Oct-14 21:33N 38°58' W 071°23'1312.5
2014-Oct-14 20:33N 38°47' W 071°14'1313.3
2014-Oct-14 19:34N 38°36' W 071°05'1413.5
2014-Oct-14 18:34N 38°25' W 070°55'1412.8
2014-Oct-14 17:28N 38°14' W 070°44'1212.6
2014-Oct-14 16:29N 38°04' W 070°34'1313.2
2014-Oct-14 15:28N 37°53' W 070°25'6 6.7
2014-Oct-14 14:30N 37°47' W 070°22'  
Track history (hours):
 
Tides and Currents Weather Stations Pressure Air Temp Water Temp Dewpoint Dewpoint Depression Visibility Wind Speed Wind Dir Waves Ship Positions

Maersk Visby

Last reported at 2014-Oct-18 23:08 UTC. Time now 2014-Oct-31 15:53 UTC.
Position N 36°44' W 075°41'.
Warning: this ship's position is 12 days out of date.

Length 180 m; draft 9.5 m.

Type: Ship (hazmat cat D). MMSI: 564979000.

Date/timePositionNaut miles runAvg speedWind from/ knotsBaromVisibWave heightAir tempDewpointWater temp
2014-Oct-18 23:08N 36°44' W 075°41'712.3
2014-Oct-18 22:33N 36°49' W 075°47'1212.1
2014-Oct-18 21:33N 36°56' W 075°59'1413.9
2014-Oct-18 20:32N 37°00' W 076°15'9 8.9
2014-Oct-18 19:33N 36°53' W 076°20'0 0.4
2014-Oct-18 18:23N 36°53' W 076°21'0 0.0
2014-Oct-18 14:23N 36°53' W 076°21'0 0.0
2014-Oct-18 10:26N 36°53' W 076°21'3 3.1
2014-Oct-18 09:33N 36°55' W 076°20'7 6.7
2014-Oct-18 08:32N 37°00' W 076°15'1212.3
2014-Oct-18 07:33N 36°58' W 075°60'1514.5
2014-Oct-18 06:33N 37°10' W 076°09'1615.8
2014-Oct-18 05:31N 37°26' W 076°05'7615.2
2014-Oct-18 00:33N 38°40' W 076°25'1615.8
2014-Oct-17 23:34N 38°56' W 076°23'1413.8
2014-Oct-17 22:33N 39°10' W 076°25'8 8.2
2014-Oct-17 21:33N 39°15' W 076°33'0 0.0
2014-Oct-17 20:32N 39°15' W 076°33'0 0.0
2014-Oct-17 19:32N 39°15' W 076°33'0 0.0
2014-Oct-17 18:22N 39°15' W 076°33'0 0.0
2014-Oct-17 17:19N 39°15' W 076°33'0 0.0
2014-Oct-17 16:31N 39°15' W 076°33'0 0.0
2014-Oct-17 15:32N 39°15' W 076°33'0 0.0
2014-Oct-17 14:25N 39°15' W 076°33'0 0.0
2014-Oct-17 13:31N 39°15' W 076°33'0 0.0
2014-Oct-17 12:28N 39°15' W 076°33'0 0.1
2014-Oct-17 11:32N 39°15' W 076°33'7 6.6
2014-Oct-17 10:32N 39°11' W 076°27'1212.3
2014-Oct-17 09:33N 38°59' W 076°23'1515.4
2014-Oct-17 08:33N 38°44' W 076°26'1515.1
2014-Oct-17 07:33N 38°29' W 076°23'2215.6
2014-Oct-17 06:08N 38°08' W 076°14'915.5
2014-Oct-17 05:33N 37°59' W 076°12'3214.4
2014-Oct-17 03:19N 37°27' W 076°04'1115.0
2014-Oct-17 02:33N 37°16' W 076°07'1414.2
2014-Oct-17 01:32N 37°02' W 076°04'1313.4
2014-Oct-17 00:33N 36°53' W 075°52'16313.2
2014-Oct-16 12:14N 39°08' W 073°55'1014.2
2014-Oct-16 11:30N 39°18' W 073°54'1314.1
2014-Oct-16 10:33N 39°31' W 073°53'1413.8
2014-Oct-16 09:33N 39°45' W 073°51'1413.5
2014-Oct-16 08:33N 39°58' W 073°50'2813.6
2014-Oct-16 06:28N 40°27' W 073°50'1111.8
2014-Oct-16 05:32N 40°33' W 074°02'7 7.6
2014-Oct-16 04:33N 40°39' W 074°08'3 0.8
2014-Oct-16 01:14N 40°41' W 074°09'0 0.0
2014-Oct-16 00:29N 40°41' W 074°09'0 0.0
2014-Oct-15 21:32N 40°41' W 074°09'0 0.0
2014-Oct-15 20:26N 40°41' W 074°09'0 0.0
2014-Oct-15 18:26N 40°41' W 074°09'0 0.0
2014-Oct-15 17:26N 40°41' W 074°09'0 0.0
2014-Oct-15 16:20N 40°41' W 074°09'0 0.0
2014-Oct-15 15:23N 40°41' W 074°09'0 0.0
2014-Oct-15 14:32N 40°41' W 074°09'0 0.0
2014-Oct-15 13:32N 40°41' W 074°09'0 0.0
2014-Oct-15 12:23N 40°41' W 074°09'1 0.9
2014-Oct-15 11:34N 40°41' W 074°09'5 5.2
2014-Oct-15 10:33N 40°38' W 074°03'1111.3
2014-Oct-15 09:33N 40°29' W 073°54'1111.5
2014-Oct-15 08:34N 40°23' W 073°41'1312.9
2014-Oct-15 07:34N 40°16' W 073°27'1312.9
2014-Oct-15 06:34N 40°08' W 073°13'1312.9
2014-Oct-15 05:33N 40°02' W 072°58'1312.9
2014-Oct-15 04:34N 39°56' W 072°43'1313.0
2014-Oct-15 03:34N 39°51' W 072°28'1313.1
2014-Oct-15 02:34N 39°45' W 072°13'1313.2
2014-Oct-15 01:33N 39°39' W 071°58'1312.6
2014-Oct-15 00:34N 39°28' W 071°50'1212.3
2014-Oct-14 23:34N 39°18' W 071°41'1212.1
2014-Oct-14 22:33N 39°08' W 071°32'1212.0
2014-Oct-14 21:33N 38°58' W 071°23'1312.5
2014-Oct-14 20:33N 38°47' W 071°14'1313.3
2014-Oct-14 19:34N 38°36' W 071°05'1413.5
2014-Oct-14 18:34N 38°25' W 070°55'1412.8
2014-Oct-14 17:28N 38°14' W 070°44'1212.6
2014-Oct-14 16:29N 38°04' W 070°34'1313.2
2014-Oct-14 15:28N 37°53' W 070°25'6 6.7
2014-Oct-14 14:30N 37°47' W 070°22'  

Dump ship's entire track history